This is the latest recevied weather packets stored in our database for station/object KA8DUX-2. If no packets are shown the sender has not sent any weather packets the latest 10 day(s).
| Time | Temp. | Humidity | Pressure | Rain* | Wind** | Luminosity | Snow |
|---|---|---|---|---|---|---|---|
| 1777751440 | 10° C | 45% | 1016 hPa | 0 mm | - | 734 W/m² | - |
| 1777751137 | 10.56° C | 44% | 1016 hPa | 0 mm | - | 421 W/m² | - |
| 1777750833 | 10° C | 47% | 1016.1 hPa | 0 mm | - | 746 W/m² | - |
| 1777750531 | 9.44° C | 46% | 1016.1 hPa | 0 mm | - | 196 W/m² | - |
| 1777750227 | 10° C | 45% | 1016.1 hPa | 0 mm | - | 203 W/m² | - |
| 1777749922 | 10.56° C | 45% | 1016.1 hPa | 0 mm | - | 245 W/m² | - |
| 1777749620 | 10° C | 45% | 1016.1 hPa | 0 mm | - | 732 W/m² | - |
| 1777749317 | 10.56° C | 45% | 1016.2 hPa | 0 mm | - | 230 W/m² | - |
| 1777749015 | 10.56° C | 45% | 1016.2 hPa | 0 mm | - | 231 W/m² | - |
| 1777748712 | 10° C | 46% | 1016.3 hPa | 0 mm | - | 311 W/m² | - |
| 1777748409 | 10° C | 49% | 1016.4 hPa | 0 mm | - | 331 W/m² | - |
| 1777748104 | 10° C | 46% | 1016.4 hPa | 0 mm | - | 374 W/m² | - |
| 1777747801 | 10.56° C | 46% | 1016.4 hPa | 0 mm | - | 513 W/m² | - |
| 1777747496 | 10.56° C | 47% | 1016.2 hPa | 0 mm | - | 342 W/m² | - |
| 1777747193 | 8.89° C | 48% | 1016.9 hPa | 0 mm | - | 239 W/m² | - |
| 1777746889 | 9.44° C | 49% | 1016.4 hPa | 0 mm | - | 181 W/m² | - |
| 1777746584 | 9.44° C | 49% | 1016.7 hPa | 0 mm | - | 199 W/m² | - |
| 1777746280 | 9.44° C | 49% | 1016.7 hPa | 0 mm | - | 184 W/m² | - |
| 1777745976 | 9.44° C | 47% | 1016.8 hPa | 0 mm | - | 203 W/m² | - |
| 1777745675 | 9.44° C | 46% | 1016.7 hPa | 0 mm | - | 271 W/m² | - |
| 1777745373 | 8.89° C | 47% | 1016.8 hPa | 0 mm | - | 272 W/m² | - |
| 1777745070 | 8.89° C | 46% | 1016.8 hPa | 0 mm | - | 291 W/m² | - |
| 1777744766 | 8.89° C | 46% | 1016.9 hPa | 0 mm | - | 255 W/m² | - |
| 1777744460 | 8.89° C | 46% | 1016.8 hPa | 0 mm | - | 187 W/m² | - |
| 1777744157 | 10° C | 46% | 1016.8 hPa | 0 mm | - | 155 W/m² | - |
* Rain latest hour (hover to see other rain measurements)
** Current wind speed in m/s (hover to see current wind gust speed)